sensor_id;sensor_type;location;lat;lon;timestamp;temperature;humidity
15359;DHT22;7779;49.596;11.070;2023-07-08T00:01:17;18.40;46.00
15359;DHT22;7779;49.596;11.070;2023-07-08T00:03:44;18.30;46.30
15359;DHT22;7779;49.596;11.070;2023-07-08T00:06:20;18.30;46.50
15359;DHT22;7779;49.596;11.070;2023-07-08T00:08:47;18.20;47.70
15359;DHT22;7779;49.596;11.070;2023-07-08T00:11:14;18.20;46.80
15359;DHT22;7779;49.596;11.070;2023-07-08T00:13:41;18.10;47.60
15359;DHT22;7779;49.596;11.070;2023-07-08T00:16:13;18.10;47.20
15359;DHT22;7779;49.596;11.070;2023-07-08T00:18:42;18.00;47.40
15359;DHT22;7779;49.596;11.070;2023-07-08T00:21:15;18.00;47.30
15359;DHT22;7779;49.596;11.070;2023-07-08T00:23:49;17.90;48.10
15359;DHT22;7779;49.596;11.070;2023-07-08T00:26:26;17.80;47.80
15359;DHT22;7779;49.596;11.070;2023-07-08T00:28:54;17.80;48.70
15359;DHT22;7779;49.596;11.070;2023-07-08T00:31:22;17.80;47.80
15359;DHT22;7779;49.596;11.070;2023-07-08T00:33:51;17.70;47.90
15359;DHT22;7779;49.596;11.070;2023-07-08T00:36:20;17.70;48.10
15359;DHT22;7779;49.596;11.070;2023-07-08T00:38:47;17.70;48.30
15359;DHT22;7779;49.596;11.070;2023-07-08T00:41:27;17.50;48.30
15359;DHT22;7779;49.596;11.070;2023-07-08T00:43:57;17.60;49.20
15359;DHT22;7779;49.596;11.070;2023-07-08T00:51:38;17.50;49.10
15359;DHT22;7779;49.596;11.070;2023-07-08T00:54:11;17.40;49.20
15359;DHT22;7779;49.596;11.070;2023-07-08T00:59:29;17.40;49.10
15359;DHT22;7779;49.596;11.070;2023-07-08T01:02:01;17.30;49.40
15359;DHT22;7779;49.596;11.070;2023-07-08T01:04:46;17.20;50.10
15359;DHT22;7779;49.596;11.070;2023-07-08T01:07:17;17.20;50.30
15359;DHT22;7779;49.596;11.070;2023-07-08T01:09:50;17.20;49.20
15359;DHT22;7779;49.596;11.070;2023-07-08T01:12:37;17.20;49.30
15359;DHT22;7779;49.596;11.070;2023-07-08T01:15:07;17.20;49.60
15359;DHT22;7779;49.596;11.070;2023-07-08T01:17:33;17.10;49.40
15359;DHT22;7779;49.596;11.070;2023-07-08T01:20:02;17.10;49.50
15359;DHT22;7779;49.596;11.070;2023-07-08T01:22:39;17.00;49.70
15359;DHT22;7779;49.596;11.070;2023-07-08T01:25:06;17.00;51.10
15359;DHT22;7779;49.596;11.070;2023-07-08T01:27:36;16.90;49.90
15359;DHT22;7779;49.596;11.070;2023-07-08T01:30:06;16.90;50.10
15359;DHT22;7779;49.596;11.070;2023-07-08T01:32:34;16.80;50.10
15359;DHT22;7779;49.596;11.070;2023-07-08T01:35:03;16.80;50.20
15359;DHT22;7779;49.596;11.070;2023-07-08T01:37:37;16.70;50.20
15359;DHT22;7779;49.596;11.070;2023-07-08T01:40:24;16.70;50.60
15359;DHT22;7779;49.596;11.070;2023-07-08T01:42:58;16.70;51.80
15359;DHT22;7779;49.596;11.070;2023-07-08T01:45:27;16.60;50.50
15359;DHT22;7779;49.596;11.070;2023-07-08T01:48:07;16.50;50.50
15359;DHT22;7779;49.596;11.070;2023-07-08T01:50:40;16.50;51.60
15359;DHT22;7779;49.596;11.070;2023-07-08T01:53:15;16.40;50.80
15359;DHT22;7779;49.596;11.070;2023-07-08T01:55:43;16.30;51.10
15359;DHT22;7779;49.596;11.070;2023-07-08T01:58:08;16.30;50.90
15359;DHT22;7779;49.596;11.070;2023-07-08T02:00:34;16.20;51.00
15359;DHT22;7779;49.596;11.070;2023-07-08T02:03:00;16.20;51.10
15359;DHT22;7779;49.596;11.070;2023-07-08T02:05:26;16.20;51.30
15359;DHT22;7779;49.596;11.070;2023-07-08T02:07:52;16.10;51.40
15359;DHT22;7779;49.596;11.070;2023-07-08T02:10:18;16.10;51.40
15359;DHT22;7779;49.596;11.070;2023-07-08T02:12:44;16.10;51.50
15359;DHT22;7779;49.596;11.070;2023-07-08T02:15:10;16.10;51.70
15359;DHT22;7779;49.596;11.070;2023-07-08T02:17:35;16.10;51.70
15359;DHT22;7779;49.596;11.070;2023-07-08T02:20:01;16.10;51.80
15359;DHT22;7779;49.596;11.070;2023-07-08T02:22:28;16.00;51.80
15359;DHT22;7779;49.596;11.070;2023-07-08T02:24:54;16.10;52.10
15359;DHT22;7779;49.596;11.070;2023-07-08T02:27:20;16.00;52.00
15359;DHT22;7779;49.596;11.070;2023-07-08T02:29:45;16.00;52.10
15359;DHT22;7779;49.596;11.070;2023-07-08T02:32:11;16.00;52.10
15359;DHT22;7779;49.596;11.070;2023-07-08T02:34:39;16.00;52.20
15359;DHT22;7779;49.596;11.070;2023-07-08T02:37:06;16.00;52.30
15359;DHT22;7779;49.596;11.070;2023-07-08T02:39:32;16.00;52.30
15359;DHT22;7779;49.596;11.070;2023-07-08T02:41:57;16.00;52.30
15359;DHT22;7779;49.596;11.070;2023-07-08T02:44:23;15.90;53.40
15359;DHT22;7779;49.596;11.070;2023-07-08T02:46:49;15.90;52.40
15359;DHT22;7779;49.596;11.070;2023-07-08T02:49:15;15.90;52.50
15359;DHT22;7779;49.596;11.070;2023-07-08T02:51:41;15.90;52.50
15359;DHT22;7779;49.596;11.070;2023-07-08T02:54:07;15.90;52.60
15359;DHT22;7779;49.596;11.070;2023-07-08T02:56:33;15.90;52.70
15359;DHT22;7779;49.596;11.070;2023-07-08T02:58:58;15.90;52.80
15359;DHT22;7779;49.596;11.070;2023-07-08T03:01:24;15.80;52.80
15359;DHT22;7779;49.596;11.070;2023-07-08T03:03:52;15.80;52.90
15359;DHT22;7779;49.596;11.070;2023-07-08T03:06:22;15.80;53.10
15359;DHT22;7779;49.596;11.070;2023-07-08T03:08:48;15.80;53.90
15359;DHT22;7779;49.596;11.070;2023-07-08T03:11:14;15.80;53.20
15359;DHT22;7779;49.596;11.070;2023-07-08T03:13:40;15.80;53.40
15359;DHT22;7779;49.596;11.070;2023-07-08T03:16:07;15.70;53.40
15359;DHT22;7779;49.596;11.070;2023-07-08T03:18:39;15.70;53.40
15359;DHT22;7779;49.596;11.070;2023-07-08T03:21:15;15.70;53.50
15359;DHT22;7779;49.596;11.070;2023-07-08T03:23:41;15.70;54.20
15359;DHT22;7779;49.596;11.070;2023-07-08T03:26:14;15.70;53.60
15359;DHT22;7779;49.596;11.070;2023-07-08T03:28:51;15.70;53.90
15359;DHT22;7779;49.596;11.070;2023-07-08T03:31:19;15.60;53.50
15359;DHT22;7779;49.596;11.070;2023-07-08T03:33:45;15.60;53.70
15359;DHT22;7779;49.596;11.070;2023-07-08T03:36:14;15.60;53.70
15359;DHT22;7779;49.596;11.070;2023-07-08T03:38:53;15.60;54.00
15359;DHT22;7779;49.596;11.070;2023-07-08T03:41:21;15.60;53.90
15359;DHT22;7779;49.596;11.070;2023-07-08T03:43:48;15.60;54.10
15359;DHT22;7779;49.596;11.070;2023-07-08T03:46:17;15.50;54.20
15359;DHT22;7779;49.596;11.070;2023-07-08T03:48:44;15.50;54.20
15359;DHT22;7779;49.596;11.070;2023-07-08T03:51:30;15.50;54.30
15359;DHT22;7779;49.596;11.070;2023-07-08T03:53:58;15.50;55.90
15359;DHT22;7779;49.596;11.070;2023-07-08T03:56:24;15.50;54.60
15359;DHT22;7779;49.596;11.070;2023-07-08T03:58:51;15.50;54.70
15359;DHT22;7779;49.596;11.070;2023-07-08T04:01:19;15.60;54.70
15359;DHT22;7779;49.596;11.070;2023-07-08T04:03:47;15.60;54.80
15359;DHT22;7779;49.596;11.070;2023-07-08T04:06:14;15.60;54.80
15359;DHT22;7779;49.596;11.070;2023-07-08T04:08:40;15.60;54.90
15359;DHT22;7779;49.596;11.070;2023-07-08T04:11:06;15.60;55.00
15359;DHT22;7779;49.596;11.070;2023-07-08T04:13:32;15.60;55.00
15359;DHT22;7779;49.596;11.070;2023-07-08T04:16:02;15.60;55.00
15359;DHT22;7779;49.596;11.070;2023-07-08T04:18:30;15.60;55.30
15359;DHT22;7779;49.596;11.070;2023-07-08T04:20:56;15.70;55.10
15359;DHT22;7779;49.596;11.070;2023-07-08T04:23:22;15.70;55.10
15359;DHT22;7779;49.596;11.070;2023-07-08T04:25:49;15.70;55.10
15359;DHT22;7779;49.596;11.070;2023-07-08T04:28:16;15.70;55.00
15359;DHT22;7779;49.596;11.070;2023-07-08T04:30:42;15.70;55.00
15359;DHT22;7779;49.596;11.070;2023-07-08T04:33:11;15.70;55.00
15359;DHT22;7779;49.596;11.070;2023-07-08T04:35:38;15.70;54.90
15359;DHT22;7779;49.596;11.070;2023-07-08T04:38:06;15.70;55.20
15359;DHT22;7779;49.596;11.070;2023-07-08T04:40:37;15.80;55.70
15359;DHT22;7779;49.596;11.070;2023-07-08T04:43:08;16.00;56.30
15359;DHT22;7779;49.596;11.070;2023-07-08T04:45:37;16.10;56.80
15359;DHT22;7779;49.596;11.070;2023-07-08T04:48:04;16.40;57.00
15359;DHT22;7779;49.596;11.070;2023-07-08T04:50:42;15.60;56.60
15359;DHT22;7779;49.596;11.070;2023-07-08T04:53:09;16.90;57.50
15359;DHT22;7779;49.596;11.070;2023-07-08T04:55:38;17.20;57.20
15359;DHT22;7779;49.596;11.070;2023-07-08T04:58:07;17.50;56.90
15359;DHT22;7779;49.596;11.070;2023-07-08T05:00:33;17.70;56.60
15359;DHT22;7779;49.596;11.070;2023-07-08T05:02:59;18.00;56.50
15359;DHT22;7779;49.596;11.070;2023-07-08T05:05:25;18.20;56.30
15359;DHT22;7779;49.596;11.070;2023-07-08T05:07:50;18.30;56.00
15359;DHT22;7779;49.596;11.070;2023-07-08T05:10:17;18.60;55.90
15359;DHT22;7779;49.596;11.070;2023-07-08T05:12:43;18.70;55.60
15359;DHT22;7779;49.596;11.070;2023-07-08T05:15:10;18.90;55.50
15359;DHT22;7779;49.596;11.070;2023-07-08T05:17:38;19.10;55.40
15359;DHT22;7779;49.596;11.070;2023-07-08T05:20:06;19.30;55.20
15359;DHT22;7779;49.596;11.070;2023-07-08T05:22:33;19.40;55.00
15359;DHT22;7779;49.596;11.070;2023-07-08T05:24:59;19.60;55.00
15359;DHT22;7779;49.596;11.070;2023-07-08T05:27:26;19.70;54.90
15359;DHT22;7779;49.596;11.070;2023-07-08T05:29:53;19.90;55.00
15359;DHT22;7779;49.596;11.070;2023-07-08T05:32:19;20.00;55.00
15359;DHT22;7779;49.596;11.070;2023-07-08T05:34:46;20.20;55.10
15359;DHT22;7779;49.596;11.070;2023-07-08T05:37:13;20.40;55.20
15359;DHT22;7779;49.596;11.070;2023-07-08T05:39:39;20.60;55.20
15359;DHT22;7779;49.596;11.070;2023-07-08T05:42:06;20.80;55.00
15359;DHT22;7779;49.596;11.070;2023-07-08T05:44:32;21.00;54.70
15359;DHT22;7779;49.596;11.070;2023-07-08T05:46:58;21.10;54.40
15359;DHT22;7779;49.596;11.070;2023-07-08T05:49:23;21.30;54.20
15359;DHT22;7779;49.596;11.070;2023-07-08T05:51:49;21.50;53.80
15359;DHT22;7779;49.596;11.070;2023-07-08T05:54:15;21.70;53.50
15359;DHT22;7779;49.596;11.070;2023-07-08T05:56:41;21.80;53.30
15359;DHT22;7779;49.596;11.070;2023-07-08T05:59:07;22.00;53.20
15359;DHT22;7779;49.596;11.070;2023-07-08T06:01:33;22.20;53.00
15359;DHT22;7779;49.596;11.070;2023-07-08T06:03:58;22.40;53.00
15359;DHT22;7779;49.596;11.070;2023-07-08T06:06:26;22.60;53.00
15359;DHT22;7779;49.596;11.070;2023-07-08T06:08:53;22.80;52.90
15359;DHT22;7779;49.596;11.070;2023-07-08T06:11:19;23.10;52.80
15359;DHT22;7779;49.596;11.070;2023-07-08T06:13:45;23.40;51.60
15359;DHT22;7779;49.596;11.070;2023-07-08T06:16:11;23.60;52.30
15359;DHT22;7779;49.596;11.070;2023-07-08T06:18:37;23.80;52.10
15359;DHT22;7779;49.596;11.070;2023-07-08T06:21:03;24.20;51.90
15359;DHT22;7779;49.596;11.070;2023-07-08T06:23:29;24.40;51.60
15359;DHT22;7779;49.596;11.070;2023-07-08T06:25:55;24.70;51.40
15359;DHT22;7779;49.596;11.070;2023-07-08T06:28:21;24.90;51.10
15359;DHT22;7779;49.596;11.070;2023-07-08T06:30:48;25.20;50.60
15359;DHT22;7779;49.596;11.070;2023-07-08T06:33:15;25.50;50.20
15359;DHT22;7779;49.596;11.070;2023-07-08T06:35:42;25.80;49.80
15359;DHT22;7779;49.596;11.070;2023-07-08T06:38:08;26.10;49.50
15359;DHT22;7779;49.596;11.070;2023-07-08T06:40:34;26.30;49.10
15359;DHT22;7779;49.596;11.070;2023-07-08T06:43:01;26.60;48.70
15359;DHT22;7779;49.596;11.070;2023-07-08T06:45:37;26.80;48.20
15359;DHT22;7779;49.596;11.070;2023-07-08T06:48:03;27.10;47.80
15359;DHT22;7779;49.596;11.070;2023-07-08T06:50:28;27.30;47.40
15359;DHT22;7779;49.596;11.070;2023-07-08T06:52:54;27.50;46.90
15359;DHT22;7779;49.596;11.070;2023-07-08T06:55:20;27.70;45.00
15359;DHT22;7779;49.596;11.070;2023-07-08T06:57:46;27.90;46.10
15359;DHT22;7779;49.596;11.070;2023-07-08T07:00:12;28.10;45.70
15359;DHT22;7779;49.596;11.070;2023-07-08T07:02:38;28.20;45.20
15359;DHT22;7779;49.596;11.070;2023-07-08T07:05:04;28.30;44.80
15359;DHT22;7779;49.596;11.070;2023-07-08T07:07:30;28.50;44.50
15359;DHT22;7779;49.596;11.070;2023-07-08T07:09:56;28.60;44.10
15359;DHT22;7779;49.596;11.070;2023-07-08T07:12:24;28.70;43.70
15359;DHT22;7779;49.596;11.070;2023-07-08T07:14:50;28.70;43.30
15359;DHT22;7779;49.596;11.070;2023-07-08T07:17:21;28.80;43.00
15359;DHT22;7779;49.596;11.070;2023-07-08T07:19:48;28.90;42.70
15359;DHT22;7779;49.596;11.070;2023-07-08T07:22:14;28.90;42.50
15359;DHT22;7779;49.596;11.070;2023-07-08T07:24:41;29.10;42.40
15359;DHT22;7779;49.596;11.070;2023-07-08T07:27:08;29.10;42.20
15359;DHT22;7779;49.596;11.070;2023-07-08T07:29:45;29.20;42.00
15359;DHT22;7779;49.596;11.070;2023-07-08T07:32:12;29.20;41.20
15359;DHT22;7779;49.596;11.070;2023-07-08T07:34:39;29.30;41.70
15359;DHT22;7779;49.596;11.070;2023-07-08T07:37:06;29.40;41.60
15359;DHT22;7779;49.596;11.070;2023-07-08T07:39:39;29.50;41.40
15359;DHT22;7779;49.596;11.070;2023-07-08T07:42:06;29.50;41.30
15359;DHT22;7779;49.596;11.070;2023-07-08T07:44:32;29.60;41.00
15359;DHT22;7779;49.596;11.070;2023-07-08T07:46:58;29.70;40.80
15359;DHT22;7779;49.596;11.070;2023-07-08T07:49:24;29.80;40.60
15359;DHT22;7779;49.596;11.070;2023-07-08T07:51:50;29.90;40.50
15359;DHT22;7779;49.596;11.070;2023-07-08T07:54:16;29.90;40.20
15359;DHT22;7779;49.596;11.070;2023-07-08T07:56:41;30.00;40.10
15359;DHT22;7779;49.596;11.070;2023-07-08T07:59:07;30.00;39.90
15359;DHT22;7779;49.596;11.070;2023-07-08T08:01:33;30.10;39.80
15359;DHT22;7779;49.596;11.070;2023-07-08T08:03:58;30.20;39.70
15359;DHT22;7779;49.596;11.070;2023-07-08T08:06:24;30.30;39.50
15359;DHT22;7779;49.596;11.070;2023-07-08T08:08:50;30.30;39.30
15359;DHT22;7779;49.596;11.070;2023-07-08T08:11:16;30.40;39.20
15359;DHT22;7779;49.596;11.070;2023-07-08T08:13:43;30.50;39.00
15359;DHT22;7779;49.596;11.070;2023-07-08T08:16:09;30.50;38.80
15359;DHT22;7779;49.596;11.070;2023-07-08T08:18:35;30.60;38.80
15359;DHT22;7779;49.596;11.070;2023-07-08T08:21:01;30.70;38.50
15359;DHT22;7779;49.596;11.070;2023-07-08T08:23:26;30.70;38.20
15359;DHT22;7779;49.596;11.070;2023-07-08T08:25:52;30.80;38.10
15359;DHT22;7779;49.596;11.070;2023-07-08T08:28:18;30.80;37.90
15359;DHT22;7779;49.596;11.070;2023-07-08T08:30:48;30.90;37.70
15359;DHT22;7779;49.596;11.070;2023-07-08T08:33:15;31.00;37.50
15359;DHT22;7779;49.596;11.070;2023-07-08T08:35:42;31.00;37.40
15359;DHT22;7779;49.596;11.070;2023-07-08T08:38:08;31.10;37.20
15359;DHT22;7779;49.596;11.070;2023-07-08T08:40:34;31.10;37.00
15359;DHT22;7779;49.596;11.070;2023-07-08T08:43:04;31.10;36.70
15359;DHT22;7779;49.596;11.070;2023-07-08T08:45:43;31.10;36.40
15359;DHT22;7779;49.596;11.070;2023-07-08T08:48:17;31.20;36.20
15359;DHT22;7779;49.596;11.070;2023-07-08T08:50:53;31.20;36.30
15359;DHT22;7779;49.596;11.070;2023-07-08T08:53:26;31.30;35.60
15359;DHT22;7779;49.596;11.070;2023-07-08T08:56:25;31.30;36.20
15359;DHT22;7779;49.596;11.070;2023-07-08T09:01:49;31.40;35.00
15359;DHT22;7779;49.596;11.070;2023-07-08T09:04:36;31.50;35.80
15359;DHT22;7779;49.596;11.070;2023-07-08T09:07:13;31.50;34.40
15359;DHT22;7779;49.596;11.070;2023-07-08T09:09:53;31.50;34.40
15359;DHT22;7779;49.596;11.070;2023-07-08T09:12:27;31.50;34.80
15359;DHT22;7779;49.596;11.070;2023-07-08T09:14:56;31.50;34.90
15359;DHT22;7779;49.596;11.070;2023-07-08T09:17:32;31.60;34.70
15359;DHT22;7779;49.596;11.070;2023-07-08T09:20:07;31.60;34.00
15359;DHT22;7779;49.596;11.070;2023-07-08T09:27:51;31.80;34.30
15359;DHT22;7779;49.596;11.070;2023-07-08T09:30:20;31.90;34.10
15359;DHT22;7779;49.596;11.070;2023-07-08T09:32:48;31.90;33.60
15359;DHT22;7779;49.596;11.070;2023-07-08T09:35:23;32.00;33.40
15359;DHT22;7779;49.596;11.070;2023-07-08T09:37:52;32.00;32.50
15359;DHT22;7779;49.596;11.070;2023-07-08T09:40:32;32.10;33.10
15359;DHT22;7779;49.596;11.070;2023-07-08T09:43:02;32.10;32.80
15359;DHT22;7779;49.596;11.070;2023-07-08T09:45:41;32.10;32.40
15359;DHT22;7779;49.596;11.070;2023-07-08T09:48:21;32.10;31.70
15359;DHT22;7779;49.596;11.070;2023-07-08T09:50:51;32.10;32.00
15359;DHT22;7779;49.596;11.070;2023-07-08T09:53:18;32.10;32.30
15359;DHT22;7779;49.596;11.070;2023-07-08T09:55:45;32.20;32.30
15359;DHT22;7779;49.596;11.070;2023-07-08T09:58:23;32.10;31.80
15359;DHT22;7779;49.596;11.070;2023-07-08T10:00:58;32.20;31.70
15359;DHT22;7779;49.596;11.070;2023-07-08T10:03:28;32.10;30.90
15359;DHT22;7779;49.596;11.070;2023-07-08T10:05:57;32.10;31.40
15359;DHT22;7779;49.596;11.070;2023-07-08T10:08:39;32.10;31.50
15359;DHT22;7779;49.596;11.070;2023-07-08T10:13:54;32.10;31.20
15359;DHT22;7779;49.596;11.070;2023-07-08T10:16:23;32.10;31.20
15359;DHT22;7779;49.596;11.070;2023-07-08T10:18:51;32.10;31.10
15359;DHT22;7779;49.596;11.070;2023-07-08T10:24:47;32.10;30.10
15359;DHT22;7779;49.596;11.070;2023-07-08T10:30:25;32.20;30.00
15359;DHT22;7779;49.596;11.070;2023-07-08T10:33:11;32.20;30.70
15359;DHT22;7779;49.596;11.070;2023-07-08T10:36:12;32.20;30.30
15359;DHT22;7779;49.596;11.070;2023-07-08T10:41:52;32.10;30.20
15359;DHT22;7779;49.596;11.070;2023-07-08T10:44:35;32.10;29.60
15359;DHT22;7779;49.596;11.070;2023-07-08T10:53:50;32.10;29.80
15359;DHT22;7779;49.596;11.070;2023-07-08T11:02:07;32.20;29.30
15359;DHT22;7779;49.596;11.070;2023-07-08T11:08:10;32.30;29.80
15359;DHT22;7779;49.596;11.070;2023-07-08T11:11:22;32.30;29.00
15359;DHT22;7779;49.596;11.070;2023-07-08T11:14:15;32.40;29.50
15359;DHT22;7779;49.596;11.070;2023-07-08T11:16:56;32.40;28.40
15359;DHT22;7779;49.596;11.070;2023-07-08T11:19:40;32.40;29.00
15359;DHT22;7779;49.596;11.070;2023-07-08T11:22:12;32.50;29.10
15359;DHT22;7779;49.596;11.070;2023-07-08T11:24:50;32.50;29.10
15359;DHT22;7779;49.596;11.070;2023-07-08T11:32:38;32.50;28.80
15359;DHT22;7779;49.596;11.070;2023-07-08T11:35:17;32.50;28.70
15359;DHT22;7779;49.596;11.070;2023-07-08T11:37:47;32.50;28.70
15359;DHT22;7779;49.596;11.070;2023-07-08T11:40:19;32.60;28.80
15359;DHT22;7779;49.596;11.070;2023-07-08T11:42:52;32.60;28.40
15359;DHT22;7779;49.596;11.070;2023-07-08T11:45:30;32.60;27.50
15359;DHT22;7779;49.596;11.070;2023-07-08T11:48:26;32.60;28.40
15359;DHT22;7779;49.596;11.070;2023-07-08T11:50:56;32.60;27.80
15359;DHT22;7779;49.596;11.070;2023-07-08T12:03:47;32.60;27.70
15359;DHT22;7779;49.596;11.070;2023-07-08T12:09:21;32.70;27.40
15359;DHT22;7779;49.596;11.070;2023-07-08T12:12:04;32.70;27.60
15359;DHT22;7779;49.596;11.070;2023-07-08T12:14:32;32.70;27.80
15359;DHT22;7779;49.596;11.070;2023-07-08T12:16:58;32.70;27.80
15359;DHT22;7779;49.596;11.070;2023-07-08T12:19:27;32.70;27.70
15359;DHT22;7779;49.596;11.070;2023-07-08T12:21:56;32.70;27.50
15359;DHT22;7779;49.596;11.070;2023-07-08T12:24:22;32.70;27.50
15359;DHT22;7779;49.596;11.070;2023-07-08T12:26:52;32.80;27.60
15359;DHT22;7779;49.596;11.070;2023-07-08T12:29:18;32.80;27.60
15359;DHT22;7779;49.596;11.070;2023-07-08T12:31:44;32.80;27.60
15359;DHT22;7779;49.596;11.070;2023-07-08T12:34:13;32.90;27.10
15359;DHT22;7779;49.596;11.070;2023-07-08T12:36:43;32.90;27.50
15359;DHT22;7779;49.596;11.070;2023-07-08T12:39:15;32.90;27.50
15359;DHT22;7779;49.596;11.070;2023-07-08T12:41:43;32.90;27.30
15359;DHT22;7779;49.596;11.070;2023-07-08T12:44:20;33.00;27.40
15359;DHT22;7779;49.596;11.070;2023-07-08T12:46:50;33.00;27.10
15359;DHT22;7779;49.596;11.070;2023-07-08T12:49:20;33.10;27.30
15359;DHT22;7779;49.596;11.070;2023-07-08T12:51:47;33.10;27.20
15359;DHT22;7779;49.596;11.070;2023-07-08T12:54:14;33.00;27.10
15359;DHT22;7779;49.596;11.070;2023-07-08T12:56:43;33.10;27.20
15359;DHT22;7779;49.596;11.070;2023-07-08T12:59:17;33.10;26.90
15359;DHT22;7779;49.596;11.070;2023-07-08T13:01:46;33.10;26.80
15359;DHT22;7779;49.596;11.070;2023-07-08T13:04:14;33.10;26.80
15359;DHT22;7779;49.596;11.070;2023-07-08T13:06:43;33.00;26.70
15359;DHT22;7779;49.596;11.070;2023-07-08T13:09:36;33.10;26.60
15359;DHT22;7779;49.596;11.070;2023-07-08T13:12:12;33.10;26.10
15359;DHT22;7779;49.596;11.070;2023-07-08T13:14:41;33.10;26.40
15359;DHT22;7779;49.596;11.070;2023-07-08T13:17:12;33.10;26.80
15359;DHT22;7779;49.596;11.070;2023-07-08T13:19:40;33.10;26.70
15359;DHT22;7779;49.596;11.070;2023-07-08T13:22:14;33.10;26.80
15359;DHT22;7779;49.596;11.070;2023-07-08T13:24:42;33.20;26.60
15359;DHT22;7779;49.596;11.070;2023-07-08T13:27:24;33.20;26.60
15359;DHT22;7779;49.596;11.070;2023-07-08T13:29:52;33.20;25.80
15359;DHT22;7779;49.596;11.070;2023-07-08T13:32:19;33.20;26.40
15359;DHT22;7779;49.596;11.070;2023-07-08T13:34:48;33.20;26.40
15359;DHT22;7779;49.596;11.070;2023-07-08T13:37:17;33.30;26.40
15359;DHT22;7779;49.596;11.070;2023-07-08T13:39:46;33.20;26.40
15359;DHT22;7779;49.596;11.070;2023-07-08T13:42:12;33.30;26.50
15359;DHT22;7779;49.596;11.070;2023-07-08T13:44:46;33.30;26.60
15359;DHT22;7779;49.596;11.070;2023-07-08T13:47:25;33.40;26.50
15359;DHT22;7779;49.596;11.070;2023-07-08T13:50:05;33.40;26.40
15359;DHT22;7779;49.596;11.070;2023-07-08T13:52:43;33.40;26.50
15359;DHT22;7779;49.596;11.070;2023-07-08T13:55:17;33.40;26.60
15359;DHT22;7779;49.596;11.070;2023-07-08T13:57:44;33.50;26.60
15359;DHT22;7779;49.596;11.070;2023-07-08T14:00:11;33.50;26.70
15359;DHT22;7779;49.596;11.070;2023-07-08T14:02:39;33.50;26.60
15359;DHT22;7779;49.596;11.070;2023-07-08T14:05:11;33.60;26.10
15359;DHT22;7779;49.596;11.070;2023-07-08T14:07:39;33.60;26.60
15359;DHT22;7779;49.596;11.070;2023-07-08T14:10:12;33.60;26.50
15359;DHT22;7779;49.596;11.070;2023-07-08T14:12:38;33.70;26.30
15359;DHT22;7779;49.596;11.070;2023-07-08T14:15:05;33.70;25.90
15359;DHT22;7779;49.596;11.070;2023-07-08T14:17:31;33.60;26.30
15359;DHT22;7779;49.596;11.070;2023-07-08T14:19:57;33.70;26.30
15359;DHT22;7779;49.596;11.070;2023-07-08T14:22:29;33.70;26.30
15359;DHT22;7779;49.596;11.070;2023-07-08T14:24:58;33.70;26.10
15359;DHT22;7779;49.596;11.070;2023-07-08T14:27:29;33.70;26.70
15359;DHT22;7779;49.596;11.070;2023-07-08T14:29:55;33.70;26.10
15359;DHT22;7779;49.596;11.070;2023-07-08T14:32:24;33.60;26.50
15359;DHT22;7779;49.596;11.070;2023-07-08T14:35:22;33.60;25.80
15359;DHT22;7779;49.596;11.070;2023-07-08T14:37:50;33.50;25.70
15359;DHT22;7779;49.596;11.070;2023-07-08T14:40:26;33.50;26.00
15359;DHT22;7779;49.596;11.070;2023-07-08T14:43:07;33.50;25.90
15359;DHT22;7779;49.596;11.070;2023-07-08T14:45:46;33.50;26.10
15359;DHT22;7779;49.596;11.070;2023-07-08T14:48:14;33.50;26.10
15359;DHT22;7779;49.596;11.070;2023-07-08T14:50:40;33.50;26.20
15359;DHT22;7779;49.596;11.070;2023-07-08T14:53:06;33.50;26.20
15359;DHT22;7779;49.596;11.070;2023-07-08T14:55:33;33.50;26.10
15359;DHT22;7779;49.596;11.070;2023-07-08T14:58:00;33.50;26.10
15359;DHT22;7779;49.596;11.070;2023-07-08T15:00:28;33.50;26.00
15359;DHT22;7779;49.596;11.070;2023-07-08T15:02:55;33.50;26.00
15359;DHT22;7779;49.596;11.070;2023-07-08T15:05:23;33.50;26.00
15359;DHT22;7779;49.596;11.070;2023-07-08T15:07:52;33.50;26.00
15359;DHT22;7779;49.596;11.070;2023-07-08T15:10:27;33.40;26.00
15359;DHT22;7779;49.596;11.070;2023-07-08T15:12:56;33.40;26.00
15359;DHT22;7779;49.596;11.070;2023-07-08T15:15:28;33.40;26.00
15359;DHT22;7779;49.596;11.070;2023-07-08T15:18:00;33.40;25.90
15359;DHT22;7779;49.596;11.070;2023-07-08T15:20:32;33.40;25.90
15359;DHT22;7779;49.596;11.070;2023-07-08T15:22:58;33.40;25.90
15359;DHT22;7779;49.596;11.070;2023-07-08T15:25:24;33.40;25.90
15359;DHT22;7779;49.596;11.070;2023-07-08T15:27:53;33.40;25.90
15359;DHT22;7779;49.596;11.070;2023-07-08T15:30:23;33.40;25.80
15359;DHT22;7779;49.596;11.070;2023-07-08T15:32:51;33.40;25.70
15359;DHT22;7779;49.596;11.070;2023-07-08T15:35:23;33.40;25.70
15359;DHT22;7779;49.596;11.070;2023-07-08T15:37:52;33.40;25.70
15359;DHT22;7779;49.596;11.070;2023-07-08T15:40:19;33.30;25.60
15359;DHT22;7779;49.596;11.070;2023-07-08T15:42:49;33.30;25.60
15359;DHT22;7779;49.596;11.070;2023-07-08T15:45:25;33.20;25.60
15359;DHT22;7779;49.596;11.070;2023-07-08T15:47:54;33.30;25.50
15359;DHT22;7779;49.596;11.070;2023-07-08T15:50:22;33.20;25.60
15359;DHT22;7779;49.596;11.070;2023-07-08T15:52:50;33.20;25.60
15359;DHT22;7779;49.596;11.070;2023-07-08T15:55:30;33.20;25.60
15359;DHT22;7779;49.596;11.070;2023-07-08T15:58:13;33.20;25.30
15359;DHT22;7779;49.596;11.070;2023-07-08T16:00:46;33.20;25.40
15359;DHT22;7779;49.596;11.070;2023-07-08T16:03:25;33.20;25.60
15359;DHT22;7779;49.596;11.070;2023-07-08T16:05:56;33.20;25.50
15359;DHT22;7779;49.596;11.070;2023-07-08T16:08:25;33.10;25.60
15359;DHT22;7779;49.596;11.070;2023-07-08T16:11:02;33.10;25.60
15359;DHT22;7779;49.596;11.070;2023-07-08T16:13:33;33.10;25.20
15359;DHT22;7779;49.596;11.070;2023-07-08T16:16:03;33.10;25.50
15359;DHT22;7779;49.596;11.070;2023-07-08T16:18:29;33.10;25.60
15359;DHT22;7779;49.596;11.070;2023-07-08T16:20:55;33.10;25.70
15359;DHT22;7779;49.596;11.070;2023-07-08T16:23:21;33.10;25.70
15359;DHT22;7779;49.596;11.070;2023-07-08T16:25:51;33.10;25.80
15359;DHT22;7779;49.596;11.070;2023-07-08T16:28:27;33.10;25.70
15359;DHT22;7779;49.596;11.070;2023-07-08T16:31:14;33.10;25.70
15359;DHT22;7779;49.596;11.070;2023-07-08T16:33:42;33.10;25.70
15359;DHT22;7779;49.596;11.070;2023-07-08T16:36:12;33.10;25.80
15359;DHT22;7779;49.596;11.070;2023-07-08T16:38:42;33.00;25.60
15359;DHT22;7779;49.596;11.070;2023-07-08T16:41:12;33.10;25.70
15359;DHT22;7779;49.596;11.070;2023-07-08T16:43:39;33.00;25.70
15359;DHT22;7779;49.596;11.070;2023-07-08T16:46:07;33.00;25.70
15359;DHT22;7779;49.596;11.070;2023-07-08T16:48:35;33.00;25.70
15359;DHT22;7779;49.596;11.070;2023-07-08T16:51:01;33.00;25.80